sensor_id;sensor_type;location;lat;lon;timestamp;P1;durP1;ratioP1;P2;durP2;ratioP2
59734;SDS011;64362;45.620;4.920;2023-04-03T00:01:53;1.65;;;0.90;;
59734;SDS011;64362;45.620;4.920;2023-04-03T00:04:18;1.80;;;0.80;;
59734;SDS011;64362;45.620;4.920;2023-04-03T00:06:44;3.20;;;1.10;;
59734;SDS011;64362;45.620;4.920;2023-04-03T00:09:10;1.77;;;0.90;;
59734;SDS011;64362;45.620;4.920;2023-04-03T00:11:35;1.90;;;1.00;;
59734;SDS011;64362;45.620;4.920;2023-04-03T00:14:00;2.03;;;0.90;;
59734;SDS011;64362;45.620;4.920;2023-04-03T00:16:26;3.63;;;1.10;;
59734;SDS011;64362;45.620;4.920;2023-04-03T00:18:51;1.80;;;0.80;;
59734;SDS011;64362;45.620;4.920;2023-04-03T00:21:17;2.92;;;1.08;;
59734;SDS011;64362;45.620;4.920;2023-04-03T00:23:42;2.10;;;0.90;;
59734;SDS011;64362;45.620;4.920;2023-04-03T00:26:08;2.03;;;1.00;;
59734;SDS011;64362;45.620;4.920;2023-04-03T00:28:33;2.35;;;0.80;;
59734;SDS011;64362;45.620;4.920;2023-04-03T00:30:59;1.92;;;0.98;;
59734;SDS011;64362;45.620;4.920;2023-04-03T00:33:25;2.25;;;0.82;;
59734;SDS011;64362;45.620;4.920;2023-04-03T00:35:50;2.63;;;1.00;;
59734;SDS011;64362;45.620;4.920;2023-04-03T00:38:16;2.80;;;0.90;;
59734;SDS011;64362;45.620;4.920;2023-04-03T00:40:43;2.70;;;1.10;;
59734;SDS011;64362;45.620;4.920;2023-04-03T00:43:17;1.65;;;0.90;;
59734;SDS011;64362;45.620;4.920;2023-04-03T00:45:56;1.80;;;0.80;;
59734;SDS011;64362;45.620;4.920;2023-04-03T00:48:25;3.65;;;1.10;;
59734;SDS011;64362;45.620;4.920;2023-04-03T00:50:53;1.52;;;0.80;;
59734;SDS011;64362;45.620;4.920;2023-04-03T00:53:21;1.83;;;1.10;;
59734;SDS011;64362;45.620;4.920;2023-04-03T00:55:48;2.45;;;1.02;;
59734;SDS011;64362;45.620;4.920;2023-04-03T00:58:15;3.30;;;1.00;;
59734;SDS011;64362;45.620;4.920;2023-04-03T01:00:43;1.55;;;0.80;;
59734;SDS011;64362;45.620;4.920;2023-04-03T01:03:11;2.20;;;0.85;;
59734;SDS011;64362;45.620;4.920;2023-04-03T01:05:38;3.60;;;0.90;;
59734;SDS011;64362;45.620;4.920;2023-04-03T01:08:04;1.10;;;0.80;;
59734;SDS011;64362;45.620;4.920;2023-04-03T01:10:32;1.95;;;1.02;;
59734;SDS011;64362;45.620;4.920;2023-04-03T01:12:58;2.35;;;0.95;;
59734;SDS011;64362;45.620;4.920;2023-04-03T01:15:25;3.03;;;1.10;;
59734;SDS011;64362;45.620;4.920;2023-04-03T01:17:54;3.00;;;1.08;;
59734;SDS011;64362;45.620;4.920;2023-04-03T01:25:40;1.50;;;0.80;;
59734;SDS011;64362;45.620;4.920;2023-04-03T01:28:08;1.52;;;0.70;;
59734;SDS011;64362;45.620;4.920;2023-04-03T01:30:40;1.67;;;0.80;;
59734;SDS011;64362;45.620;4.920;2023-04-03T01:33:08;1.38;;;0.60;;
59734;SDS011;64362;45.620;4.920;2023-04-03T01:35:33;2.05;;;0.70;;
59734;SDS011;64362;45.620;4.920;2023-04-03T01:37:59;1.80;;;0.70;;
59734;SDS011;64362;45.620;4.920;2023-04-03T01:40:25;2.22;;;0.70;;
59734;SDS011;64362;45.620;4.920;2023-04-03T01:42:51;1.45;;;0.73;;
59734;SDS011;64362;45.620;4.920;2023-04-03T01:45:16;1.52;;;0.70;;
59734;SDS011;64362;45.620;4.920;2023-04-03T01:47:42;1.85;;;0.70;;
59734;SDS011;64362;45.620;4.920;2023-04-03T01:50:08;2.08;;;1.00;;
59734;SDS011;64362;45.620;4.920;2023-04-03T01:52:34;1.50;;;0.80;;
59734;SDS011;64362;45.620;4.920;2023-04-03T01:54:59;1.40;;;0.70;;
59734;SDS011;64362;45.620;4.920;2023-04-03T01:57:25;2.20;;;0.75;;
59734;SDS011;64362;45.620;4.920;2023-04-03T01:59:50;1.13;;;0.70;;
59734;SDS011;64362;45.620;4.920;2023-04-03T02:02:16;2.47;;;0.88;;
59734;SDS011;64362;45.620;4.920;2023-04-03T02:04:42;2.03;;;0.68;;
59734;SDS011;64362;45.620;4.920;2023-04-03T02:07:07;1.23;;;0.68;;
59734;SDS011;64362;45.620;4.920;2023-04-03T02:09:33;1.27;;;0.50;;
59734;SDS011;64362;45.620;4.920;2023-04-03T02:11:58;0.77;;;0.60;;
59734;SDS011;64362;45.620;4.920;2023-04-03T02:14:25;1.42;;;0.70;;
59734;SDS011;64362;45.620;4.920;2023-04-03T02:16:52;2.33;;;0.77;;
59734;SDS011;64362;45.620;4.920;2023-04-03T02:19:20;1.67;;;0.60;;
59734;SDS011;64362;45.620;4.920;2023-04-03T02:21:45;1.10;;;0.60;;
59734;SDS011;64362;45.620;4.920;2023-04-03T02:24:11;1.25;;;0.68;;
59734;SDS011;64362;45.620;4.920;2023-04-03T02:26:36;1.35;;;0.60;;
59734;SDS011;64362;45.620;4.920;2023-04-03T02:29:03;2.58;;;0.60;;
59734;SDS011;64362;45.620;4.920;2023-04-03T02:31:29;1.00;;;0.60;;
59734;SDS011;64362;45.620;4.920;2023-04-03T02:33:55;2.40;;;0.57;;
59734;SDS011;64362;45.620;4.920;2023-04-03T02:36:21;1.27;;;0.50;;
59734;SDS011;64362;45.620;4.920;2023-04-03T02:38:51;0.90;;;0.57;;
59734;SDS011;64362;45.620;4.920;2023-04-03T02:41:17;1.65;;;0.63;;
59734;SDS011;64362;45.620;4.920;2023-04-03T02:43:42;2.10;;;0.70;;
59734;SDS011;64362;45.620;4.920;2023-04-03T02:46:08;1.15;;;0.65;;
59734;SDS011;64362;45.620;4.920;2023-04-03T02:48:34;1.00;;;0.50;;
59734;SDS011;64362;45.620;4.920;2023-04-03T02:51:00;1.73;;;0.57;;
59734;SDS011;64362;45.620;4.920;2023-04-03T02:53:26;0.90;;;0.50;;
59734;SDS011;64362;45.620;4.920;2023-04-03T02:55:51;1.33;;;0.70;;
59734;SDS011;64362;45.620;4.920;2023-04-03T02:58:17;1.10;;;0.65;;
59734;SDS011;64362;45.620;4.920;2023-04-03T03:00:42;1.83;;;0.68;;
59734;SDS011;64362;45.620;4.920;2023-04-03T03:03:08;1.17;;;0.60;;
59734;SDS011;64362;45.620;4.920;2023-04-03T03:05:33;1.00;;;0.50;;
59734;SDS011;64362;45.620;4.920;2023-04-03T03:07:59;2.25;;;0.60;;
59734;SDS011;64362;45.620;4.920;2023-04-03T03:10:24;1.30;;;0.60;;
59734;SDS011;64362;45.620;4.920;2023-04-03T03:12:50;0.93;;;0.50;;
59734;SDS011;64362;45.620;4.920;2023-04-03T03:15:16;1.13;;;0.50;;
59734;SDS011;64362;45.620;4.920;2023-04-03T03:17:42;1.00;;;0.60;;
59734;SDS011;64362;45.620;4.920;2023-04-03T03:20:08;1.35;;;0.50;;
59734;SDS011;64362;45.620;4.920;2023-04-03T03:22:35;2.45;;;0.70;;
59734;SDS011;64362;45.620;4.920;2023-04-03T03:25:01;1.00;;;0.60;;
59734;SDS011;64362;45.620;4.920;2023-04-03T03:27:27;1.42;;;0.50;;
59734;SDS011;64362;45.620;4.920;2023-04-03T03:29:53;1.88;;;0.50;;
59734;SDS011;64362;45.620;4.920;2023-04-03T03:32:19;1.33;;;0.52;;
59734;SDS011;64362;45.620;4.920;2023-04-03T03:34:44;0.98;;;0.40;;
59734;SDS011;64362;45.620;4.920;2023-04-03T03:37:10;1.42;;;0.60;;
59734;SDS011;64362;45.620;4.920;2023-04-03T03:39:36;1.20;;;0.40;;
59734;SDS011;64362;45.620;4.920;2023-04-03T03:42:01;1.85;;;0.50;;
59734;SDS011;64362;45.620;4.920;2023-04-03T03:44:27;1.42;;;0.50;;
59734;SDS011;64362;45.620;4.920;2023-04-03T03:46:54;1.35;;;0.50;;
59734;SDS011;64362;45.620;4.920;2023-04-03T03:49:21;0.88;;;0.50;;
59734;SDS011;64362;45.620;4.920;2023-04-03T03:51:46;0.88;;;0.40;;
59734;SDS011;64362;45.620;4.920;2023-04-03T03:54:12;0.77;;;0.47;;
59734;SDS011;64362;45.620;4.920;2023-04-03T03:56:38;0.88;;;0.60;;
59734;SDS011;64362;45.620;4.920;2023-04-03T03:59:03;0.85;;;0.50;;
59734;SDS011;64362;45.620;4.920;2023-04-03T04:01:30;0.90;;;0.50;;
59734;SDS011;64362;45.620;4.920;2023-04-03T04:03:56;1.45;;;0.60;;
59734;SDS011;64362;45.620;4.920;2023-04-03T04:06:25;1.38;;;0.60;;
59734;SDS011;64362;45.620;4.920;2023-04-03T04:08:53;0.82;;;0.40;;
59734;SDS011;64362;45.620;4.920;2023-04-03T04:11:19;1.85;;;0.75;;
59734;SDS011;64362;45.620;4.920;2023-04-03T04:13:46;1.00;;;0.50;;
59734;SDS011;64362;45.620;4.920;2023-04-03T04:16:13;0.95;;;0.43;;
59734;SDS011;64362;45.620;4.920;2023-04-03T04:18:38;1.92;;;0.70;;
59734;SDS011;64362;45.620;4.920;2023-04-03T04:21:04;1.10;;;0.38;;
59734;SDS011;64362;45.620;4.920;2023-04-03T04:23:30;1.27;;;0.50;;
59734;SDS011;64362;45.620;4.920;2023-04-03T04:25:57;1.65;;;0.70;;
59734;SDS011;64362;45.620;4.920;2023-04-03T04:28:23;1.27;;;0.57;;
59734;SDS011;64362;45.620;4.920;2023-04-03T04:30:51;0.98;;;0.70;;
59734;SDS011;64362;45.620;4.920;2023-04-03T04:33:17;2.22;;;0.60;;
59734;SDS011;64362;45.620;4.920;2023-04-03T04:35:43;1.10;;;0.50;;
59734;SDS011;64362;45.620;4.920;2023-04-03T04:38:10;1.25;;;0.70;;
59734;SDS011;64362;45.620;4.920;2023-04-03T04:40:36;0.68;;;0.60;;
59734;SDS011;64362;45.620;4.920;2023-04-03T04:43:02;1.58;;;0.68;;
59734;SDS011;64362;45.620;4.920;2023-04-03T04:45:28;1.10;;;0.60;;
59734;SDS011;64362;45.620;4.920;2023-04-03T04:47:55;1.20;;;0.57;;
59734;SDS011;64362;45.620;4.920;2023-04-03T04:50:22;1.02;;;0.60;;
59734;SDS011;64362;45.620;4.920;2023-04-03T04:52:48;1.38;;;0.60;;
59734;SDS011;64362;45.620;4.920;2023-04-03T04:55:13;1.15;;;0.60;;
59734;SDS011;64362;45.620;4.920;2023-04-03T04:57:39;1.00;;;0.60;;
59734;SDS011;64362;45.620;4.920;2023-04-03T05:00:06;0.75;;;0.50;;
59734;SDS011;64362;45.620;4.920;2023-04-03T05:02:32;0.70;;;0.50;;
59734;SDS011;64362;45.620;4.920;2023-04-03T05:04:58;1.08;;;0.80;;
59734;SDS011;64362;45.620;4.920;2023-04-03T05:07:26;1.65;;;0.50;;
59734;SDS011;64362;45.620;4.920;2023-04-03T05:09:52;1.63;;;1.00;;
59734;SDS011;64362;45.620;4.920;2023-04-03T05:12:18;0.40;;;0.30;;
59734;SDS011;64362;45.620;4.920;2023-04-03T05:14:50;1.05;;;0.60;;
59734;SDS011;64362;45.620;4.920;2023-04-03T05:17:16;1.55;;;0.80;;
59734;SDS011;64362;45.620;4.920;2023-04-03T05:19:46;2.30;;;0.50;;
59734;SDS011;64362;45.620;4.920;2023-04-03T05:22:13;1.45;;;0.60;;
59734;SDS011;64362;45.620;4.920;2023-04-03T05:24:38;4.30;;;0.88;;
59734;SDS011;64362;45.620;4.920;2023-04-03T05:27:04;2.22;;;0.55;;
59734;SDS011;64362;45.620;4.920;2023-04-03T05:29:33;6.22;;;1.00;;
59734;SDS011;64362;45.620;4.920;2023-04-03T05:32:00;1.65;;;0.65;;
59734;SDS011;64362;45.620;4.920;2023-04-03T05:34:25;3.05;;;0.80;;
59734;SDS011;64362;45.620;4.920;2023-04-03T05:36:53;4.07;;;0.90;;
59734;SDS011;64362;45.620;4.920;2023-04-03T05:39:18;2.88;;;0.90;;
59734;SDS011;64362;45.620;4.920;2023-04-03T05:41:46;2.45;;;1.00;;
59734;SDS011;64362;45.620;4.920;2023-04-03T05:44:11;2.42;;;0.80;;
59734;SDS011;64362;45.620;4.920;2023-04-03T05:46:37;4.13;;;0.98;;
59734;SDS011;64362;45.620;4.920;2023-04-03T05:49:05;3.30;;;1.02;;
59734;SDS011;64362;45.620;4.920;2023-04-03T05:51:34;2.90;;;0.85;;
59734;SDS011;64362;45.620;4.920;2023-04-03T05:54:12;4.45;;;1.08;;
59734;SDS011;64362;45.620;4.920;2023-04-03T05:57:15;3.35;;;1.25;;
59734;SDS011;64362;45.620;4.920;2023-04-03T05:59:42;6.35;;;1.02;;
59734;SDS011;64362;45.620;4.920;2023-04-03T06:02:18;6.45;;;1.20;;
59734;SDS011;64362;45.620;4.920;2023-04-03T06:04:46;3.92;;;1.20;;
59734;SDS011;64362;45.620;4.920;2023-04-03T06:07:22;4.07;;;1.40;;
59734;SDS011;64362;45.620;4.920;2023-04-03T06:09:49;3.40;;;1.50;;
59734;SDS011;64362;45.620;4.920;2023-04-03T06:12:16;5.32;;;2.00;;
59734;SDS011;64362;45.620;4.920;2023-04-03T06:14:42;4.47;;;1.80;;
59734;SDS011;64362;45.620;4.920;2023-04-03T06:17:08;4.85;;;1.95;;
59734;SDS011;64362;45.620;4.920;2023-04-03T06:19:34;5.10;;;1.73;;
59734;SDS011;64362;45.620;4.920;2023-04-03T06:22:00;4.40;;;1.55;;
59734;SDS011;64362;45.620;4.920;2023-04-03T06:24:25;6.47;;;1.80;;
59734;SDS011;64362;45.620;4.920;2023-04-03T06:26:51;3.63;;;1.70;;
59734;SDS011;64362;45.620;4.920;2023-04-03T06:29:18;3.35;;;1.50;;
59734;SDS011;64362;45.620;4.920;2023-04-03T06:31:44;3.25;;;1.40;;
59734;SDS011;64362;45.620;4.920;2023-04-03T06:34:10;4.25;;;1.60;;
59734;SDS011;64362;45.620;4.920;2023-04-03T06:36:37;3.72;;;2.03;;
59734;SDS011;64362;45.620;4.920;2023-04-03T06:39:02;3.65;;;1.67;;
59734;SDS011;64362;45.620;4.920;2023-04-03T06:41:28;7.00;;;2.50;;
59734;SDS011;64362;45.620;4.920;2023-04-03T06:43:53;5.50;;;1.85;;
59734;SDS011;64362;45.620;4.920;2023-04-03T06:46:21;3.30;;;1.50;;
59734;SDS011;64362;45.620;4.920;2023-04-03T06:48:48;4.55;;;1.85;;
59734;SDS011;64362;45.620;4.920;2023-04-03T06:51:18;5.63;;;1.70;;
59734;SDS011;64362;45.620;4.920;2023-04-03T06:53:49;3.05;;;1.70;;
59734;SDS011;64362;45.620;4.920;2023-04-03T06:56:15;4.80;;;1.70;;
59734;SDS011;64362;45.620;4.920;2023-04-03T06:58:41;2.33;;;1.52;;
59734;SDS011;64362;45.620;4.920;2023-04-03T07:01:07;3.25;;;1.70;;
59734;SDS011;64362;45.620;4.920;2023-04-03T07:03:35;3.35;;;1.80;;
59734;SDS011;64362;45.620;4.920;2023-04-03T07:06:01;3.88;;;2.50;;
59734;SDS011;64362;45.620;4.920;2023-04-03T07:08:26;3.75;;;1.85;;
59734;SDS011;64362;45.620;4.920;2023-04-03T07:10:52;4.32;;;1.95;;
59734;SDS011;64362;45.620;4.920;2023-04-03T07:13:17;2.85;;;2.17;;
59734;SDS011;64362;45.620;4.920;2023-04-03T07:15:43;3.75;;;1.90;;
59734;SDS011;64362;45.620;4.920;2023-04-03T07:18:09;4.85;;;2.00;;
59734;SDS011;64362;45.620;4.920;2023-04-03T07:20:34;2.58;;;1.85;;
59734;SDS011;64362;45.620;4.920;2023-04-03T07:23:00;4.72;;;1.95;;
59734;SDS011;64362;45.620;4.920;2023-04-03T07:25:27;2.20;;;1.70;;
59734;SDS011;64362;45.620;4.920;2023-04-03T07:27:53;3.35;;;1.88;;
59734;SDS011;64362;45.620;4.920;2023-04-03T07:30:19;3.55;;;1.65;;
59734;SDS011;64362;45.620;4.920;2023-04-03T07:32:45;5.05;;;2.17;;
59734;SDS011;64362;45.620;4.920;2023-04-03T07:35:11;4.05;;;1.88;;
59734;SDS011;64362;45.620;4.920;2023-04-03T07:37:37;3.58;;;1.73;;
59734;SDS011;64362;45.620;4.920;2023-04-03T07:40:02;2.95;;;1.75;;
59734;SDS011;64362;45.620;4.920;2023-04-03T07:42:28;3.20;;;1.77;;
59734;SDS011;64362;45.620;4.920;2023-04-03T07:44:54;3.67;;;1.80;;
59734;SDS011;64362;45.620;4.920;2023-04-03T07:47:20;2.58;;;1.75;;
59734;SDS011;64362;45.620;4.920;2023-04-03T07:49:46;3.08;;;1.83;;
59734;SDS011;64362;45.620;4.920;2023-04-03T07:52:12;3.60;;;1.80;;
59734;SDS011;64362;45.620;4.920;2023-04-03T07:54:39;2.65;;;1.73;;
59734;SDS011;64362;45.620;4.920;2023-04-03T07:57:05;3.22;;;1.70;;
59734;SDS011;64362;45.620;4.920;2023-04-03T07:59:30;3.42;;;1.80;;
59734;SDS011;64362;45.620;4.920;2023-04-03T08:01:56;4.10;;;1.80;;
59734;SDS011;64362;45.620;4.920;2023-04-03T08:04:22;2.80;;;2.03;;
59734;SDS011;64362;45.620;4.920;2023-04-03T08:06:47;2.95;;;1.63;;
59734;SDS011;64362;45.620;4.920;2023-04-03T08:09:16;2.97;;;1.90;;
59734;SDS011;64362;45.620;4.920;2023-04-03T08:11:41;2.80;;;1.63;;
59734;SDS011;64362;45.620;4.920;2023-04-03T08:14:07;3.38;;;1.77;;
59734;SDS011;64362;45.620;4.920;2023-04-03T08:16:33;4.47;;;1.92;;
59734;SDS011;64362;45.620;4.920;2023-04-03T08:18:58;2.60;;;1.80;;
59734;SDS011;64362;45.620;4.920;2023-04-03T08:21:24;3.15;;;1.70;;
59734;SDS011;64362;45.620;4.920;2023-04-03T08:23:51;3.00;;;2.05;;
59734;SDS011;64362;45.620;4.920;2023-04-03T08:26:18;2.22;;;1.60;;
59734;SDS011;64362;45.620;4.920;2023-04-03T08:28:45;2.90;;;2.08;;
59734;SDS011;64362;45.620;4.920;2023-04-03T08:31:13;2.90;;;1.50;;
59734;SDS011;64362;45.620;4.920;2023-04-03T08:33:40;3.22;;;1.92;;
59734;SDS011;64362;45.620;4.920;2023-04-03T08:36:06;3.13;;;1.90;;
59734;SDS011;64362;45.620;4.920;2023-04-03T08:38:33;3.40;;;2.03;;
59734;SDS011;64362;45.620;4.920;2023-04-03T08:41:14;3.08;;;1.92;;
59734;SDS011;64362;45.620;4.920;2023-04-03T08:46:13;2.58;;;1.63;;
59734;SDS011;64362;45.620;4.920;2023-04-03T08:48:41;3.42;;;2.00;;
59734;SDS011;64362;45.620;4.920;2023-04-03T08:51:12;2.90;;;1.90;;
59734;SDS011;64362;45.620;4.920;2023-04-03T08:53:41;3.03;;;1.85;;
59734;SDS011;64362;45.620;4.920;2023-04-03T08:56:10;2.70;;;2.05;;
59734;SDS011;64362;45.620;4.920;2023-04-03T08:58:42;3.25;;;1.83;;
59734;SDS011;64362;45.620;4.920;2023-04-03T09:01:17;3.55;;;2.13;;
59734;SDS011;64362;45.620;4.920;2023-04-03T09:03:45;3.22;;;1.85;;
59734;SDS011;64362;45.620;4.920;2023-04-03T09:06:20;2.67;;;2.00;;
59734;SDS011;64362;45.620;4.920;2023-04-03T09:11:40;3.25;;;2.17;;
59734;SDS011;64362;45.620;4.920;2023-04-03T09:14:25;3.38;;;2.25;;
59734;SDS011;64362;45.620;4.920;2023-04-03T09:21:58;3.00;;;2.22;;
59734;SDS011;64362;45.620;4.920;2023-04-03T09:24:25;3.45;;;2.13;;
59734;SDS011;64362;45.620;4.920;2023-04-03T09:26:56;3.15;;;2.20;;
59734;SDS011;64362;45.620;4.920;2023-04-03T09:29:24;3.13;;;2.17;;
59734;SDS011;64362;45.620;4.920;2023-04-03T09:31:58;2.70;;;1.95;;
59734;SDS011;64362;45.620;4.920;2023-04-03T09:37:02;3.28;;;2.17;;
59734;SDS011;64362;45.620;4.920;2023-04-03T09:39:33;3.03;;;2.03;;
59734;SDS011;64362;45.620;4.920;2023-04-03T09:42:19;3.40;;;2.20;;
59734;SDS011;64362;45.620;4.920;2023-04-03T09:44:53;2.78;;;2.13;;
59734;SDS011;64362;45.620;4.920;2023-04-03T09:47:28;3.05;;;2.20;;
59734;SDS011;64362;45.620;4.920;2023-04-03T09:52:48;3.78;;;2.38;;
59734;SDS011;64362;45.620;4.920;2023-04-03T09:55:20;2.92;;;2.15;;
59734;SDS011;64362;45.620;4.920;2023-04-03T09:57:57;3.40;;;2.65;;
59734;SDS011;64362;45.620;4.920;2023-04-03T10:00:31;3.63;;;2.53;;
59734;SDS011;64362;45.620;4.920;2023-04-03T10:02:59;3.80;;;2.72;;
59734;SDS011;64362;45.620;4.920;2023-04-03T10:05:38;3.05;;;2.20;;
59734;SDS011;64362;45.620;4.920;2023-04-03T10:10:34;3.15;;;2.40;;
59734;SDS011;64362;45.620;4.920;2023-04-03T10:13:06;3.83;;;2.22;;
59734;SDS011;64362;45.620;4.920;2023-04-03T10:16:03;3.17;;;2.25;;
59734;SDS011;64362;45.620;4.920;2023-04-03T10:24:05;2.97;;;2.42;;
59734;SDS011;64362;45.620;4.920;2023-04-03T10:34:40;3.70;;;2.17;;
59734;SDS011;64362;45.620;4.920;2023-04-03T10:37:20;3.20;;;2.20;;
59734;SDS011;64362;45.620;4.920;2023-04-03T10:42:50;3.80;;;2.72;;
59734;SDS011;64362;45.620;4.920;2023-04-03T10:48:26;9.88;;;6.65;;
59734;SDS011;64362;45.620;4.920;2023-04-03T10:54:00;163.57;;;64.68;;
59734;SDS011;64362;45.620;4.920;2023-04-03T10:59:21;360.98;;;159.25;;
59734;SDS011;64362;45.620;4.920;2023-04-03T11:01:59;336.65;;;146.60;;
59734;SDS011;64362;45.620;4.920;2023-04-03T11:04:28;326.80;;;141.07;;
59734;SDS011;64362;45.620;4.920;2023-04-03T11:07:00;325.48;;;139.90;;
59734;SDS011;64362;45.620;4.920;2023-04-03T11:09:38;290.98;;;126.13;;
59734;SDS011;64362;45.620;4.920;2023-04-03T11:14:52;261.67;;;117.05;;
59734;SDS011;64362;45.620;4.920;2023-04-03T11:22:36;226.23;;;94.93;;
59734;SDS011;64362;45.620;4.920;2023-04-03T11:27:42;202.85;;;85.60;;
59734;SDS011;64362;45.620;4.920;2023-04-03T11:30:14;196.82;;;80.40;;
59734;SDS011;64362;45.620;4.920;2023-04-03T11:32:59;183.80;;;74.25;;
59734;SDS011;64362;45.620;4.920;2023-04-03T11:35:29;156.15;;;65.28;;
59734;SDS011;64362;45.620;4.920;2023-04-03T11:37:56;148.55;;;62.13;;
59734;SDS011;64362;45.620;4.920;2023-04-03T11:40:30;144.98;;;59.70;;
59734;SDS011;64362;45.620;4.920;2023-04-03T11:45:53;135.23;;;54.00;;
59734;SDS011;64362;45.620;4.920;2023-04-03T11:50:59;128.07;;;51.88;;
59734;SDS011;64362;45.620;4.920;2023-04-03T11:56:04;111.90;;;46.50;;
59734;SDS011;64362;45.620;4.920;2023-04-03T12:04:13;95.88;;;38.85;;
59734;SDS011;64362;45.620;4.920;2023-04-03T12:12:00;73.35;;;32.30;;
59734;SDS011;64362;45.620;4.920;2023-04-03T12:14:27;73.38;;;30.80;;
59734;SDS011;64362;45.620;4.920;2023-04-03T12:16:54;60.30;;;27.88;;
59734;SDS011;64362;45.620;4.920;2023-04-03T12:24:27;54.72;;;25.38;;
59734;SDS011;64362;45.620;4.920;2023-04-03T12:29:26;60.15;;;24.77;;
59734;SDS011;64362;45.620;4.920;2023-04-03T12:48:50;37.47;;;16.38;;
59734;SDS011;64362;45.620;4.920;2023-04-03T12:54:03;36.17;;;16.02;;
59734;SDS011;64362;45.620;4.920;2023-04-03T12:56:38;34.88;;;14.48;;
59734;SDS011;64362;45.620;4.920;2023-04-03T12:59:23;29.92;;;13.68;;
59734;SDS011;64362;45.620;4.920;2023-04-03T13:01:55;30.08;;;13.38;;
59734;SDS011;64362;45.620;4.920;2023-04-03T13:04:24;26.88;;;12.70;;
59734;SDS011;64362;45.620;4.920;2023-04-03T13:06:50;28.23;;;12.85;;
59734;SDS011;64362;45.620;4.920;2023-04-03T13:09:23;28.88;;;12.70;;
59734;SDS011;64362;45.620;4.920;2023-04-03T13:14:23;23.67;;;10.50;;
59734;SDS011;64362;45.620;4.920;2023-04-03T13:17:32;25.83;;;11.85;;
59734;SDS011;64362;45.620;4.920;2023-04-03T13:19:40;20.05;;;9.57;;
59734;SDS011;64362;45.620;4.920;2023-04-03T13:25:11;18.73;;;8.95;;
59734;SDS011;64362;45.620;4.920;2023-04-03T13:27:38;24.40;;;10.35;;
59734;SDS011;64362;45.620;4.920;2023-04-03T13:30:17;19.10;;;9.20;;
59734;SDS011;64362;45.620;4.920;2023-04-03T13:32:47;17.67;;;9.00;;
59734;SDS011;64362;45.620;4.920;2023-04-03T13:35:29;16.75;;;8.00;;
59734;SDS011;64362;45.620;4.920;2023-04-03T13:37:56;16.27;;;9.00;;
59734;SDS011;64362;45.620;4.920;2023-04-03T13:40:24;17.13;;;7.68;;
59734;SDS011;64362;45.620;4.920;2023-04-03T13:43:01;14.43;;;7.38;;
59734;SDS011;64362;45.620;4.920;2023-04-03T13:45:29;15.20;;;7.38;;
59734;SDS011;64362;45.620;4.920;2023-04-03T13:48:17;17.67;;;8.18;;
59734;SDS011;64362;45.620;4.920;2023-04-03T13:51:19;14.48;;;7.53;;
59734;SDS011;64362;45.620;4.920;2023-04-03T13:53:42;14.20;;;7.03;;
59734;SDS011;64362;45.620;4.920;2023-04-03T13:58:55;12.50;;;6.65;;
59734;SDS011;64362;45.620;4.920;2023-04-03T14:01:23;13.02;;;6.60;;
59734;SDS011;64362;45.620;4.920;2023-04-03T14:03:54;10.15;;;5.53;;
59734;SDS011;64362;45.620;4.920;2023-04-03T14:06:22;9.77;;;5.75;;
59734;SDS011;64362;45.620;4.920;2023-04-03T14:08:48;10.15;;;5.15;;
59734;SDS011;64362;45.620;4.920;2023-04-03T14:11:15;10.63;;;5.70;;
59734;SDS011;64362;45.620;4.920;2023-04-03T14:13:43;12.35;;;5.70;;
59734;SDS011;64362;45.620;4.920;2023-04-03T14:16:18;8.88;;;4.63;;
59734;SDS011;64362;45.620;4.920;2023-04-03T14:18:45;10.25;;;5.15;;
59734;SDS011;64362;45.620;4.920;2023-04-03T14:21:12;8.68;;;4.60;;
59734;SDS011;64362;45.620;4.920;2023-04-03T14:23:39;8.40;;;4.47;;
59734;SDS011;64362;45.620;4.920;2023-04-03T14:26:10;8.77;;;4.55;;
59734;SDS011;64362;45.620;4.920;2023-04-03T14:28:37;9.63;;;4.38;;
59734;SDS011;64362;45.620;4.920;2023-04-03T14:31:05;7.18;;;3.97;;
59734;SDS011;64362;45.620;4.920;2023-04-03T14:33:32;9.07;;;4.53;;
59734;SDS011;64362;45.620;4.920;2023-04-03T14:36:00;7.70;;;4.57;;
59734;SDS011;64362;45.620;4.920;2023-04-03T14:38:29;7.38;;;3.53;;
59734;SDS011;64362;45.620;4.920;2023-04-03T14:40:56;7.20;;;3.50;;
59734;SDS011;64362;45.620;4.920;2023-04-03T14:43:22;6.78;;;3.97;;
59734;SDS011;64362;45.620;4.920;2023-04-03T14:45:48;7.10;;;3.40;;
59734;SDS011;64362;45.620;4.920;2023-04-03T14:48:19;5.38;;;3.40;;
59734;SDS011;64362;45.620;4.920;2023-04-03T14:50:47;6.20;;;3.35;;
59734;SDS011;64362;45.620;4.920;2023-04-03T14:55:45;6.20;;;3.45;;
59734;SDS011;64362;45.620;4.920;2023-04-03T14:58:12;6.07;;;3.28;;
59734;SDS011;64362;45.620;4.920;2023-04-03T15:00:39;5.70;;;2.92;;
59734;SDS011;64362;45.620;4.920;2023-04-03T15:03:04;4.82;;;2.85;;
59734;SDS011;64362;45.620;4.920;2023-04-03T15:05:30;6.72;;;3.20;;
59734;SDS011;64362;45.620;4.920;2023-04-03T15:07:56;5.80;;;3.05;;
59734;SDS011;64362;45.620;4.920;2023-04-03T15:12:52;5.72;;;2.75;;
59734;SDS011;64362;45.620;4.920;2023-04-03T15:15:18;5.32;;;3.08;;
59734;SDS011;64362;45.620;4.920;2023-04-03T15:17:45;5.82;;;2.67;;
59734;SDS011;64362;45.620;4.920;2023-04-03T15:22:38;4.80;;;2.50;;
59734;SDS011;64362;45.620;4.920;2023-04-03T15:25:04;4.80;;;2.97;;
59734;SDS011;64362;45.620;4.920;2023-04-03T15:27:30;4.85;;;3.08;;
59734;SDS011;64362;45.620;4.920;2023-04-03T15:29:55;5.45;;;2.38;;
59734;SDS011;64362;45.620;4.920;2023-04-03T15:32:20;5.40;;;2.28;;
59734;SDS011;64362;45.620;4.920;2023-04-03T15:34:46;3.47;;;2.53;;
59734;SDS011;64362;45.620;4.920;2023-04-03T15:37:11;4.07;;;2.42;;
59734;SDS011;64362;45.620;4.920;2023-04-03T15:39:37;4.05;;;1.92;;
59734;SDS011;64362;45.620;4.920;2023-04-03T15:42:02;4.13;;;2.28;;
59734;SDS011;64362;45.620;4.920;2023-04-03T15:44:32;3.63;;;2.40;;
59734;SDS011;64362;45.620;4.920;2023-04-03T15:46:58;5.88;;;2.70;;
59734;SDS011;64362;45.620;4.920;2023-04-03T15:49:25;3.38;;;2.13;;
59734;SDS011;64362;45.620;4.920;2023-04-03T15:51:51;3.55;;;2.13;;
59734;SDS011;64362;45.620;4.920;2023-04-03T15:54:16;4.20;;;2.17;;
59734;SDS011;64362;45.620;4.920;2023-04-03T15:56:42;4.28;;;2.40;;
59734;SDS011;64362;45.620;4.920;2023-04-03T15:59:08;3.08;;;2.10;;
59734;SDS011;64362;45.620;4.920;2023-04-03T16:01:33;5.90;;;2.58;;
59734;SDS011;64362;45.620;4.920;2023-04-03T16:03:59;3.63;;;2.28;;
59734;SDS011;64362;45.620;4.920;2023-04-03T16:06:25;3.45;;;2.20;;
59734;SDS011;64362;45.620;4.920;2023-04-03T16:08:51;2.78;;;2.08;;
59734;SDS011;64362;45.620;4.920;2023-04-03T16:11:16;4.38;;;2.42;;
59734;SDS011;64362;45.620;4.920;2023-04-03T16:13:42;3.20;;;2.00;;
59734;SDS011;64362;45.620;4.920;2023-04-03T16:16:08;4.22;;;2.30;;
59734;SDS011;64362;45.620;4.920;2023-04-03T16:18:34;3.05;;;1.77;;
59734;SDS011;64362;45.620;4.920;2023-04-03T16:20:59;3.28;;;2.10;;
59734;SDS011;64362;45.620;4.920;2023-04-03T16:23:25;5.15;;;2.13;;
59734;SDS011;64362;45.620;4.920;2023-04-03T16:25:50;2.95;;;1.80;;
59734;SDS011;64362;45.620;4.920;2023-04-03T16:28:16;2.60;;;2.00;;
59734;SDS011;64362;45.620;4.920;2023-04-03T16:30:43;4.05;;;1.98;;
59734;SDS011;64362;45.620;4.920;2023-04-03T16:33:10;4.18;;;2.08;;
59734;SDS011;64362;45.620;4.920;2023-04-03T16:35:36;3.92;;;2.15;;
59734;SDS011;64362;45.620;4.920;2023-04-03T16:38:01;3.22;;;2.08;;
59734;SDS011;64362;45.620;4.920;2023-04-03T16:40:27;3.95;;;1.90;;
59734;SDS011;64362;45.620;4.920;2023-04-03T16:42:52;3.88;;;1.88;;
59734;SDS011;64362;45.620;4.920;2023-04-03T16:45:17;2.53;;;1.80;;
59734;SDS011;64362;45.620;4.920;2023-04-03T16:47:43;4.03;;;1.77;;
59734;SDS011;64362;45.620;4.920;2023-04-03T16:50:08;3.72;;;1.90;;